<?xml version="1.0" encoding="UTF-8" standalone="no" ?>
<gpx xmlns="http://www.topografix.com/GPX/1/1" xmlns:xsi="http://www.w3.org/2001/XMLSchema-instance" xsi:schemaLocation="http://www.topografix.com/GPX/1/1 http://www.topografix.com/GPX/1/1/gpx.xsd" version="1.1" creator="VisuGPX - https://www.visugpx.com">
  <metadata>
    <name>Latardiere_Fougeres_20.5km</name>
    <desc><![CDATA[gnerando idor:8031701]]></desc>
  </metadata>
  <trk>
    <name><![CDATA[LaTardiere_Fougeres_20.5km-8031701]]></name>
    <extensions>
      <line xmlns="http://www.topografix.com/GPX/gpx_style/0/2">
        <color>0000FF</color>
        <width>4</width>
      </line>
    </extensions>
    <trkseg>
      <trkpt lat="46.66154" lon="-0.73182">
        <ele>158</ele>
        <time>2023-11-04T12:59:10Z</time>
      </trkpt>
      <trkpt lat="46.66098" lon="-0.73291">
        <ele>157</ele>
        <time>2023-11-04T13:01:15Z</time>
      </trkpt>
      <trkpt lat="46.66125" lon="-0.73767">
        <ele>143</ele>
        <time>2023-11-04T13:08:32Z</time>
      </trkpt>
      <trkpt lat="46.65886" lon="-0.73788">
        <ele>138</ele>
        <time>2023-11-04T13:13:52Z</time>
      </trkpt>
      <trkpt lat="46.6573" lon="-0.74007">
        <ele>136</ele>
        <time>2023-11-04T13:18:41Z</time>
      </trkpt>
      <trkpt lat="46.65724" lon="-0.74072">
        <ele>136</ele>
        <time>2023-11-04T13:19:41Z</time>
      </trkpt>
      <trkpt lat="46.65645" lon="-0.7408">
        <ele>142</ele>
        <time>2023-11-04T13:21:26Z</time>
      </trkpt>
      <trkpt lat="46.65671" lon="-0.74179">
        <ele>139</ele>
        <time>2023-11-04T13:23:04Z</time>
      </trkpt>
      <trkpt lat="46.65647" lon="-0.7429">
        <ele>144</ele>
        <time>2023-11-04T13:24:50Z</time>
      </trkpt>
      <trkpt lat="46.65509" lon="-0.74329">
        <ele>158</ele>
        <time>2023-11-04T13:27:58Z</time>
      </trkpt>
      <trkpt lat="46.65642" lon="-0.74479">
        <ele>149</ele>
        <time>2023-11-04T13:31:42Z</time>
      </trkpt>
      <trkpt lat="46.6568" lon="-0.74771">
        <ele>159</ele>
        <time>2023-11-04T13:36:14Z</time>
      </trkpt>
      <trkpt lat="46.6583" lon="-0.75179">
        <ele>147</ele>
        <time>2023-11-04T13:43:18Z</time>
      </trkpt>
      <trkpt lat="46.65801" lon="-0.75411">
        <ele>148</ele>
        <time>2023-11-04T13:46:54Z</time>
      </trkpt>
      <trkpt lat="46.65777" lon="-0.75788">
        <ele>119</ele>
        <time>2023-11-04T13:52:41Z</time>
      </trkpt>
      <trkpt lat="46.6586" lon="-0.75792">
        <ele>113</ele>
        <time>2023-11-04T13:54:32Z</time>
      </trkpt>
      <trkpt lat="46.66139" lon="-0.762">
        <ele>130</ele>
        <time>2023-11-04T14:03:19Z</time>
      </trkpt>
      <trkpt lat="46.66301" lon="-0.76402">
        <ele>124</ele>
        <time>2023-11-04T14:08:04Z</time>
      </trkpt>
      <trkpt lat="46.6639" lon="-0.76681">
        <ele>125</ele>
        <time>2023-11-04T14:12:46Z</time>
      </trkpt>
      <trkpt lat="46.66469" lon="-0.76741">
        <ele>122</ele>
        <time>2023-11-04T14:14:45Z</time>
      </trkpt>
      <trkpt lat="46.6644" lon="-0.76814">
        <ele>122</ele>
        <time>2023-11-04T14:16:02Z</time>
      </trkpt>
      <trkpt lat="46.66575" lon="-0.77213">
        <ele>152</ele>
        <time>2023-11-04T14:22:49Z</time>
      </trkpt>
      <trkpt lat="46.66714" lon="-0.77363">
        <ele>154</ele>
        <time>2023-11-04T14:26:40Z</time>
      </trkpt>
      <trkpt lat="46.66908" lon="-0.77204">
        <ele>161</ele>
        <time>2023-11-04T14:31:37Z</time>
      </trkpt>
      <trkpt lat="46.67079" lon="-0.77101">
        <ele>146</ele>
        <time>2023-11-04T14:35:44Z</time>
      </trkpt>
      <trkpt lat="46.67247" lon="-0.77037">
        <ele>139</ele>
        <time>2023-11-04T14:39:36Z</time>
      </trkpt>
      <trkpt lat="46.67306" lon="-0.76921">
        <ele>147</ele>
        <time>2023-11-04T14:41:48Z</time>
      </trkpt>
      <trkpt lat="46.67217" lon="-0.76548">
        <ele>139</ele>
        <time>2023-11-04T14:47:50Z</time>
      </trkpt>
      <trkpt lat="46.67276" lon="-0.76479">
        <ele>138</ele>
        <time>2023-11-04T14:49:31Z</time>
      </trkpt>
      <trkpt lat="46.67197" lon="-0.76466">
        <ele>137</ele>
        <time>2023-11-04T14:51:17Z</time>
      </trkpt>
      <trkpt lat="46.67088" lon="-0.7593">
        <ele>146</ele>
        <time>2023-11-04T14:59:49Z</time>
      </trkpt>
      <trkpt lat="46.67247" lon="-0.759">
        <ele>156</ele>
        <time>2023-11-04T15:03:22Z</time>
      </trkpt>
      <trkpt lat="46.673" lon="-0.7581">
        <ele>158</ele>
        <time>2023-11-04T15:05:11Z</time>
      </trkpt>
      <trkpt lat="46.67211" lon="-0.75659">
        <ele>153</ele>
        <time>2023-11-04T15:08:13Z</time>
      </trkpt>
      <trkpt lat="46.67362" lon="-0.75479">
        <ele>167</ele>
        <time>2023-11-04T15:12:34Z</time>
      </trkpt>
      <trkpt lat="46.67506" lon="-0.75449">
        <ele>175</ele>
        <time>2023-11-04T15:15:48Z</time>
      </trkpt>
      <trkpt lat="46.67432" lon="-0.75217">
        <ele>176</ele>
        <time>2023-11-04T15:19:42Z</time>
      </trkpt>
      <trkpt lat="46.67061" lon="-0.74814">
        <ele>164</ele>
        <time>2023-11-04T15:30:00Z</time>
      </trkpt>
      <trkpt lat="46.67411" lon="-0.74694">
        <ele>178</ele>
        <time>2023-11-04T15:37:59Z</time>
      </trkpt>
      <trkpt lat="46.67426" lon="-0.74638">
        <ele>181</ele>
        <time>2023-11-04T15:38:54Z</time>
      </trkpt>
      <trkpt lat="46.67639" lon="-0.74497">
        <ele>191</ele>
        <time>2023-11-04T15:44:07Z</time>
      </trkpt>
      <trkpt lat="46.67785" lon="-0.74492">
        <ele>189</ele>
        <time>2023-11-04T15:47:21Z</time>
      </trkpt>
      <trkpt lat="46.67782" lon="-0.74256">
        <ele>179</ele>
        <time>2023-11-04T15:50:58Z</time>
      </trkpt>
      <trkpt lat="46.67829" lon="-0.74105">
        <ele>179</ele>
        <time>2023-11-04T15:53:29Z</time>
      </trkpt>
      <trkpt lat="46.67786" lon="-0.73977">
        <ele>172</ele>
        <time>2023-11-04T15:55:40Z</time>
      </trkpt>
      <trkpt lat="46.68183" lon="-0.7357">
        <ele>177</ele>
        <time>2023-11-04T16:06:28Z</time>
      </trkpt>
      <trkpt lat="46.68315" lon="-0.7357">
        <ele>180</ele>
        <time>2023-11-04T16:09:24Z</time>
      </trkpt>
      <trkpt lat="46.68304" lon="-0.73432">
        <ele>180</ele>
        <time>2023-11-04T16:11:31Z</time>
      </trkpt>
      <trkpt lat="46.68374" lon="-0.73385">
        <ele>181</ele>
        <time>2023-11-04T16:13:14Z</time>
      </trkpt>
      <trkpt lat="46.68392" lon="-0.73282">
        <ele>182</ele>
        <time>2023-11-04T16:14:51Z</time>
      </trkpt>
      <trkpt lat="46.6846" lon="-0.73243">
        <ele>184</ele>
        <time>2023-11-04T16:16:29Z</time>
      </trkpt>
      <trkpt lat="46.68645" lon="-0.73123">
        <ele>197</ele>
        <time>2023-11-04T16:20:59Z</time>
      </trkpt>
      <trkpt lat="46.68792" lon="-0.73119">
        <ele>199</ele>
        <time>2023-11-04T16:24:15Z</time>
      </trkpt>
      <trkpt lat="46.69043" lon="-0.72943">
        <ele>179</ele>
        <time>2023-11-04T16:30:27Z</time>
      </trkpt>
      <trkpt lat="46.68984" lon="-0.7266">
        <ele>183</ele>
        <time>2023-11-04T16:34:57Z</time>
      </trkpt>
      <trkpt lat="46.68907" lon="-0.72565">
        <ele>189</ele>
        <time>2023-11-04T16:37:12Z</time>
      </trkpt>
      <trkpt lat="46.68763" lon="-0.72205">
        <ele>197</ele>
        <time>2023-11-04T16:43:34Z</time>
      </trkpt>
      <trkpt lat="46.68663" lon="-0.722">
        <ele>206</ele>
        <time>2023-11-04T16:45:47Z</time>
      </trkpt>
      <trkpt lat="46.6861" lon="-0.72136">
        <ele>209</ele>
        <time>2023-11-04T16:47:19Z</time>
      </trkpt>
      <trkpt lat="46.68563" lon="-0.72158">
        <ele>212</ele>
        <time>2023-11-04T16:48:25Z</time>
      </trkpt>
      <trkpt lat="46.68495" lon="-0.7202">
        <ele>217</ele>
        <time>2023-11-04T16:51:00Z</time>
      </trkpt>
      <trkpt lat="46.68569" lon="-0.71939">
        <ele>212</ele>
        <time>2023-11-04T16:53:04Z</time>
      </trkpt>
      <trkpt lat="46.68651" lon="-0.71724">
        <ele>200</ele>
        <time>2023-11-04T16:56:49Z</time>
      </trkpt>
      <trkpt lat="46.68683" lon="-0.71376">
        <ele>203</ele>
        <time>2023-11-04T17:02:10Z</time>
      </trkpt>
      <trkpt lat="46.68595" lon="-0.71149">
        <ele>203</ele>
        <time>2023-11-04T17:06:09Z</time>
      </trkpt>
      <trkpt lat="46.68536" lon="-0.709">
        <ele>198</ele>
        <time>2023-11-04T17:10:10Z</time>
      </trkpt>
      <trkpt lat="46.68398" lon="-0.70887">
        <ele>191</ele>
        <time>2023-11-04T17:13:15Z</time>
      </trkpt>
      <trkpt lat="46.68106" lon="-0.7078">
        <ele>185</ele>
        <time>2023-11-04T17:19:57Z</time>
      </trkpt>
      <trkpt lat="46.67874" lon="-0.70836">
        <ele>181</ele>
        <time>2023-11-04T17:25:10Z</time>
      </trkpt>
      <trkpt lat="46.67812" lon="-0.70553">
        <ele>175</ele>
        <time>2023-11-04T17:29:42Z</time>
      </trkpt>
      <trkpt lat="46.67724" lon="-0.7054">
        <ele>173</ele>
        <time>2023-11-04T17:31:40Z</time>
      </trkpt>
      <trkpt lat="46.67624" lon="-0.70437">
        <ele>173</ele>
        <time>2023-11-04T17:34:24Z</time>
      </trkpt>
      <trkpt lat="46.67535" lon="-0.70707">
        <ele>182</ele>
        <time>2023-11-04T17:38:58Z</time>
      </trkpt>
      <trkpt lat="46.67061" lon="-0.70823">
        <ele>191</ele>
        <time>2023-11-04T17:49:39Z</time>
      </trkpt>
      <trkpt lat="46.66996" lon="-0.7066">
        <ele>193</ele>
        <time>2023-11-04T17:52:32Z</time>
      </trkpt>
      <trkpt lat="46.66914" lon="-0.70595">
        <ele>191</ele>
        <time>2023-11-04T17:54:37Z</time>
      </trkpt>
      <trkpt lat="46.66823" lon="-0.70608">
        <ele>187</ele>
        <time>2023-11-04T17:56:39Z</time>
      </trkpt>
      <trkpt lat="46.6672" lon="-0.70347">
        <ele>183</ele>
        <time>2023-11-04T18:01:14Z</time>
      </trkpt>
      <trkpt lat="46.66502" lon="-0.70171">
        <ele>171</ele>
        <time>2023-11-04T18:06:47Z</time>
      </trkpt>
      <trkpt lat="46.66475" lon="-0.69909">
        <ele>158</ele>
        <time>2023-11-04T18:10:50Z</time>
      </trkpt>
      <trkpt lat="46.66378" lon="-0.69797">
        <ele>153</ele>
        <time>2023-11-04T18:13:35Z</time>
      </trkpt>
      <trkpt lat="46.66446" lon="-0.69651">
        <ele>165</ele>
        <time>2023-11-04T18:16:16Z</time>
      </trkpt>
      <trkpt lat="46.66337" lon="-0.69368">
        <ele>171</ele>
        <time>2023-11-04T18:21:14Z</time>
      </trkpt>
      <trkpt lat="46.66069" lon="-0.6951">
        <ele>164</ele>
        <time>2023-11-04T18:27:34Z</time>
      </trkpt>
      <trkpt lat="46.66142" lon="-0.69711">
        <ele>154</ele>
        <time>2023-11-04T18:31:02Z</time>
      </trkpt>
      <trkpt lat="46.66001" lon="-0.69896">
        <ele>152</ele>
        <time>2023-11-04T18:35:16Z</time>
      </trkpt>
      <trkpt lat="46.65895" lon="-0.70222">
        <ele>149</ele>
        <time>2023-11-04T18:40:46Z</time>
      </trkpt>
      <trkpt lat="46.65771" lon="-0.70557">
        <ele>143</ele>
        <time>2023-11-04T18:46:35Z</time>
      </trkpt>
      <trkpt lat="46.65544" lon="-0.7057">
        <ele>133</ele>
        <time>2023-11-04T18:51:38Z</time>
      </trkpt>
      <trkpt lat="46.65409" lon="-0.70759">
        <ele>133</ele>
        <time>2023-11-04T18:55:48Z</time>
      </trkpt>
      <trkpt lat="46.6525" lon="-0.7072">
        <ele>134</ele>
        <time>2023-11-04T18:59:23Z</time>
      </trkpt>
      <trkpt lat="46.65138" lon="-0.70853">
        <ele>127</ele>
        <time>2023-11-04T19:02:36Z</time>
      </trkpt>
      <trkpt lat="46.6548" lon="-0.71934">
        <ele>154</ele>
        <time>2023-11-04T19:20:46Z</time>
      </trkpt>
      <trkpt lat="46.65459" lon="-0.72093">
        <ele>155</ele>
        <time>2023-11-04T19:23:14Z</time>
      </trkpt>
      <trkpt lat="46.65506" lon="-0.72364">
        <ele>157</ele>
        <time>2023-11-04T19:27:30Z</time>
      </trkpt>
      <trkpt lat="46.65571" lon="-0.72406">
        <ele>162</ele>
        <time>2023-11-04T19:29:05Z</time>
      </trkpt>
      <trkpt lat="46.65568" lon="-0.72544">
        <ele>161</ele>
        <time>2023-11-04T19:31:12Z</time>
      </trkpt>
      <trkpt lat="46.65692" lon="-0.72703">
        <ele>156</ele>
        <time>2023-11-04T19:34:52Z</time>
      </trkpt>
      <trkpt lat="46.6583" lon="-0.73029">
        <ele>146</ele>
        <time>2023-11-04T19:40:43Z</time>
      </trkpt>
      <trkpt lat="46.65924" lon="-0.73157">
        <ele>144</ele>
        <time>2023-11-04T19:43:35Z</time>
      </trkpt>
      <trkpt lat="46.66116" lon="-0.73252">
        <ele>158</ele>
        <time>2023-11-04T19:48:05Z</time>
      </trkpt>
      <trkpt lat="46.66131" lon="-0.73225">
        <ele>158</ele>
        <time>2023-11-04T19:48:37Z</time>
      </trkpt>
      <trkpt lat="46.66151" lon="-0.73192">
        <ele>158</ele>
        <time>2023-11-04T19:49:17Z</time>
      </trkpt>
    </trkseg>
  </trk>
</gpx>